sensor_id;sensor_type;location;lat;lon;timestamp;pressure;altitude;pressure_sealevel;temperature;humidity
216;BME280;64590;48.81286795;9.14184224;2023-03-25T00:01:48;97649.81;;;9.44;79.23
216;BME280;64590;48.81286795;9.14184224;2023-03-25T00:04:15;97652.59;;;9.44;79.41
216;BME280;64590;48.81286795;9.14184224;2023-03-25T00:06:42;97647.91;;;9.33;79.39
216;BME280;64590;48.81286795;9.14184224;2023-03-25T00:09:09;97649.47;;;9.34;78.47
216;BME280;64590;48.81286795;9.14184224;2023-03-25T00:11:37;97648.75;;;9.16;79.51
216;BME280;64590;48.81286795;9.14184224;2023-03-25T00:14:03;97650.28;;;9.21;79.48
216;BME280;64590;48.81286795;9.14184224;2023-03-25T00:16:30;97645.94;;;9.30;79.23
216;BME280;64590;48.81286795;9.14184224;2023-03-25T00:18:57;97644.34;;;9.26;78.30
216;BME280;64590;48.81286795;9.14184224;2023-03-25T00:21:25;97647.94;;;9.19;79.11
216;BME280;64590;48.81286795;9.14184224;2023-03-25T00:23:51;97638.41;;;9.31;78.13
216;BME280;64590;48.81286795;9.14184224;2023-03-25T00:26:18;97648.28;;;9.35;79.40
216;BME280;64590;48.81286795;9.14184224;2023-03-25T00:28:46;97651.47;;;9.30;77.11
216;BME280;64590;48.81286795;9.14184224;2023-03-25T00:31:13;97659.41;;;9.21;79.69
216;BME280;64590;48.81286795;9.14184224;2023-03-25T00:33:40;97655.06;;;9.24;77.53
216;BME280;64590;48.81286795;9.14184224;2023-03-25T00:36:09;97637.25;;;9.18;76.83
216;BME280;64590;48.81286795;9.14184224;2023-03-25T00:38:37;97655.84;;;9.24;77.73
216;BME280;64590;48.81286795;9.14184224;2023-03-25T00:41:14;97643.16;;;9.27;77.57
216;BME280;64590;48.81286795;9.14184224;2023-03-25T00:43:48;97651.47;;;9.27;78.11
216;BME280;64590;48.81286795;9.14184224;2023-03-25T00:46:18;97644.66;;;9.53;77.05
216;BME280;64590;48.81286795;9.14184224;2023-03-25T00:48:44;97640.75;;;9.40;76.80
216;BME280;64590;48.81286795;9.14184224;2023-03-25T00:51:11;97639.56;;;9.37;76.16
216;BME280;64590;48.81286795;9.14184224;2023-03-25T00:53:39;97628.09;;;9.39;76.99
216;BME280;64590;48.81286795;9.14184224;2023-03-25T00:56:07;97626.91;;;9.36;78.43
216;BME280;64590;48.81286795;9.14184224;2023-03-25T00:58:33;97614.16;;;9.53;75.57
216;BME280;64590;48.81286795;9.14184224;2023-03-25T01:01:07;97621.69;;;9.52;76.00
216;BME280;64590;48.81286795;9.14184224;2023-03-25T01:03:35;97622.59;;;9.31;76.54
216;BME280;64590;48.81286795;9.14184224;2023-03-25T01:06:02;97620.91;;;9.52;75.93
216;BME280;64590;48.81286795;9.14184224;2023-03-25T01:08:29;97617.75;;;9.46;75.76
216;BME280;64590;48.81286795;9.14184224;2023-03-25T01:10:57;97610.66;;;9.38;76.27
216;BME280;64590;48.81286795;9.14184224;2023-03-25T01:13:24;97620.59;;;9.28;76.01
216;BME280;64590;48.81286795;9.14184224;2023-03-25T01:15:50;97620.97;;;9.38;75.00
216;BME280;64590;48.81286795;9.14184224;2023-03-25T01:18:18;97630.88;;;9.35;74.81
216;BME280;64590;48.81286795;9.14184224;2023-03-25T01:20:45;97627.31;;;9.34;73.21
216;BME280;64590;48.81286795;9.14184224;2023-03-25T01:23:11;97631.72;;;9.21;74.66
216;BME280;64590;48.81286795;9.14184224;2023-03-25T01:25:38;97619.41;;;9.29;74.82
216;BME280;64590;48.81286795;9.14184224;2023-03-25T01:28:05;97621.81;;;9.24;73.75
216;BME280;64590;48.81286795;9.14184224;2023-03-25T01:30:33;97615.13;;;9.18;75.21
216;BME280;64590;48.81286795;9.14184224;2023-03-25T01:33:00;97616.22;;;9.38;73.74
216;BME280;64590;48.81286795;9.14184224;2023-03-25T01:35:27;97604.00;;;9.28;74.50
216;BME280;64590;48.81286795;9.14184224;2023-03-25T01:37:54;97607.16;;;9.27;75.20
216;BME280;64590;48.81286795;9.14184224;2023-03-25T01:40:22;97604.78;;;9.29;73.24
216;BME280;64590;48.81286795;9.14184224;2023-03-25T01:42:49;97605.16;;;9.34;74.55
216;BME280;64590;48.81286795;9.14184224;2023-03-25T01:45:22;97602.75;;;9.37;73.13
216;BME280;64590;48.81286795;9.14184224;2023-03-25T01:47:55;97603.16;;;9.42;73.26
216;BME280;64590;48.81286795;9.14184224;2023-03-25T01:50:22;97594.44;;;9.44;73.71
216;BME280;64590;48.81286795;9.14184224;2023-03-25T01:52:56;97604.31;;;9.48;74.55
216;BME280;64590;48.81286795;9.14184224;2023-03-25T01:55:24;97605.84;;;9.56;72.53
216;BME280;64590;48.81286795;9.14184224;2023-03-25T01:57:53;97595.28;;;9.33;73.10
216;BME280;64590;48.81286795;9.14184224;2023-03-25T02:00:24;97583.81;;;9.31;73.63
216;BME280;64590;48.81286795;9.14184224;2023-03-25T02:02:55;97586.16;;;9.40;72.40
216;BME280;64590;48.81286795;9.14184224;2023-03-25T02:05:28;97579.13;;;9.18;74.63
216;BME280;64590;48.81286795;9.14184224;2023-03-25T02:08:00;97568.41;;;9.20;72.65
216;BME280;64590;48.81286795;9.14184224;2023-03-25T02:10:28;97572.03;;;9.13;73.78
216;BME280;64590;48.81286795;9.14184224;2023-03-25T02:12:54;97569.56;;;9.29;72.56
216;BME280;64590;48.81286795;9.14184224;2023-03-25T02:15:22;97572.75;;;9.21;73.06
216;BME280;64590;48.81286795;9.14184224;2023-03-25T02:18:09;97571.97;;;9.24;72.31
216;BME280;64590;48.81286795;9.14184224;2023-03-25T02:20:49;97586.25;;;9.15;73.52
216;BME280;64590;48.81286795;9.14184224;2023-03-25T02:24:08;97585.44;;;9.18;73.10
216;BME280;64590;48.81286795;9.14184224;2023-03-25T02:27:03;97582.28;;;9.23;73.26
216;BME280;64590;48.81286795;9.14184224;2023-03-25T02:30:01;97585.78;;;9.27;73.53
216;BME280;64590;48.81286795;9.14184224;2023-03-25T02:35:57;97602.78;;;9.33;73.99
216;BME280;64590;48.81286795;9.14184224;2023-03-25T02:38:34;97622.59;;;9.21;74.31
216;BME280;64590;48.81286795;9.14184224;2023-03-25T02:41:10;97638.06;;;9.18;76.88
216;BME280;64590;48.81286795;9.14184224;2023-03-25T02:43:44;97659.81;;;9.16;77.31
216;BME280;64590;48.81286795;9.14184224;2023-03-25T02:46:15;97689.94;;;8.78;80.37
216;BME280;64590;48.81286795;9.14184224;2023-03-25T02:48:49;97734.75;;;7.69;84.16
216;BME280;64590;48.81286795;9.14184224;2023-03-25T02:51:21;97691.22;;;6.75;85.47
216;BME280;64590;48.81286795;9.14184224;2023-03-25T02:53:51;97678.63;;;6.77;87.64
216;BME280;64590;48.81286795;9.14184224;2023-03-25T02:56:21;97669.13;;;6.68;88.43
216;BME280;64590;48.81286795;9.14184224;2023-03-25T02:58:51;97648.28;;;6.74;87.72
216;BME280;64590;48.81286795;9.14184224;2023-03-25T03:01:20;97632.97;;;6.84;86.85
216;BME280;64590;48.81286795;9.14184224;2023-03-25T03:03:47;97623.94;;;6.87;87.70
216;BME280;64590;48.81286795;9.14184224;2023-03-25T03:06:16;97623.56;;;6.88;88.19
216;BME280;64590;48.81286795;9.14184224;2023-03-25T03:08:56;97615.34;;;7.02;89.05
216;BME280;64590;48.81286795;9.14184224;2023-03-25T03:11:27;97619.81;;;7.32;90.72
216;BME280;64590;48.81286795;9.14184224;2023-03-25T03:13:59;97613.94;;;7.41;90.97
216;BME280;64590;48.81286795;9.14184224;2023-03-25T03:16:35;97610.00;;;7.49;91.93
216;BME280;64590;48.81286795;9.14184224;2023-03-25T03:19:15;97606.47;;;7.52;92.16
216;BME280;64590;48.81286795;9.14184224;2023-03-25T03:21:53;97602.56;;;7.71;91.42
216;BME280;64590;48.81286795;9.14184224;2023-03-25T03:24:29;97597.41;;;7.73;90.94
216;BME280;64590;48.81286795;9.14184224;2023-03-25T03:26:58;97604.16;;;7.79;90.10
216;BME280;64590;48.81286795;9.14184224;2023-03-25T03:29:32;97604.94;;;7.76;91.27
216;BME280;64590;48.81286795;9.14184224;2023-03-25T03:32:06;97610.47;;;7.76;91.70
216;BME280;64590;48.81286795;9.14184224;2023-03-25T03:34:45;97619.53;;;7.76;91.26
216;BME280;64590;48.81286795;9.14184224;2023-03-25T03:37:14;97619.19;;;7.92;86.76
216;BME280;64590;48.81286795;9.14184224;2023-03-25T03:39:46;97617.56;;;7.77;86.58
216;BME280;64590;48.81286795;9.14184224;2023-03-25T03:42:16;97616.00;;;7.90;84.34
216;BME280;64590;48.81286795;9.14184224;2023-03-25T03:44:48;97629.44;;;7.91;84.13
216;BME280;64590;48.81286795;9.14184224;2023-03-25T03:47:21;97638.13;;;8.08;84.49
216;BME280;64590;48.81286795;9.14184224;2023-03-25T03:49:52;97652.38;;;8.10;84.10
216;BME280;64590;48.81286795;9.14184224;2023-03-25T03:52:24;97657.47;;;8.08;81.83
216;BME280;64590;48.81286795;9.14184224;2023-03-25T03:54:57;97659.50;;;8.29;80.58
216;BME280;64590;48.81286795;9.14184224;2023-03-25T03:57:28;97655.50;;;8.15;79.33
216;BME280;64590;48.81286795;9.14184224;2023-03-25T03:59:59;97654.31;;;7.99;82.71
216;BME280;64590;48.81286795;9.14184224;2023-03-25T04:02:40;97651.59;;;8.20;80.50
216;BME280;64590;48.81286795;9.14184224;2023-03-25T04:05:09;97659.84;;;7.99;83.21
216;BME280;64590;48.81286795;9.14184224;2023-03-25T04:07:40;97648.03;;;8.09;81.43
216;BME280;64590;48.81286795;9.14184224;2023-03-25T04:10:13;97649.59;;;8.24;77.81
216;BME280;64590;48.81286795;9.14184224;2023-03-25T04:12:43;97649.97;;;8.05;80.62
216;BME280;64590;48.81286795;9.14184224;2023-03-25T04:15:11;97666.59;;;8.19;78.42
216;BME280;64590;48.81286795;9.14184224;2023-03-25T04:17:39;97664.59;;;8.12;79.21
216;BME280;64590;48.81286795;9.14184224;2023-03-25T04:20:06;97666.94;;;8.07;80.49
216;BME280;64590;48.81286795;9.14184224;2023-03-25T04:22:36;97664.19;;;8.14;79.26
216;BME280;64590;48.81286795;9.14184224;2023-03-25T04:25:04;97667.31;;;7.84;81.60
216;BME280;64590;48.81286795;9.14184224;2023-03-25T04:27:32;97672.09;;;8.01;81.59
216;BME280;64590;48.81286795;9.14184224;2023-03-25T04:30:03;97669.75;;;8.10;80.60
216;BME280;64590;48.81286795;9.14184224;2023-03-25T04:32:30;97669.34;;;8.01;81.61
216;BME280;64590;48.81286795;9.14184224;2023-03-25T04:34:56;97666.56;;;8.12;79.12
216;BME280;64590;48.81286795;9.14184224;2023-03-25T04:37:24;97663.00;;;7.93;80.89
216;BME280;64590;48.81286795;9.14184224;2023-03-25T04:39:51;97665.41;;;8.13;78.93
216;BME280;64590;48.81286795;9.14184224;2023-03-25T04:42:20;97662.63;;;8.09;78.08
216;BME280;64590;48.81286795;9.14184224;2023-03-25T04:44:51;97664.56;;;7.87;79.49
216;BME280;64590;48.81286795;9.14184224;2023-03-25T04:47:21;97673.19;;;7.72;81.52
216;BME280;64590;48.81286795;9.14184224;2023-03-25T04:49:48;97659.41;;;7.79;82.62
216;BME280;64590;48.81286795;9.14184224;2023-03-25T04:52:15;97667.75;;;8.07;79.87
216;BME280;64590;48.81286795;9.14184224;2023-03-25T04:54:42;97665.38;;;7.91;80.55
216;BME280;64590;48.81286795;9.14184224;2023-03-25T04:57:09;97670.06;;;7.80;79.91
216;BME280;64590;48.81286795;9.14184224;2023-03-25T04:59:36;97670.88;;;7.84;79.79
216;BME280;64590;48.81286795;9.14184224;2023-03-25T05:02:04;97674.78;;;7.76;79.60
216;BME280;64590;48.81286795;9.14184224;2023-03-25T05:04:32;97674.03;;;7.86;79.66
216;BME280;64590;48.81286795;9.14184224;2023-03-25T05:06:59;97673.25;;;7.86;79.61
216;BME280;64590;48.81286795;9.14184224;2023-03-25T05:09:26;97681.53;;;7.86;79.29
216;BME280;64590;48.81286795;9.14184224;2023-03-25T05:11:53;97679.94;;;7.81;78.96
216;BME280;64590;48.81286795;9.14184224;2023-03-25T05:14:21;97688.59;;;7.80;78.31
216;BME280;64590;48.81286795;9.14184224;2023-03-25T05:16:48;97685.88;;;7.90;78.72
216;BME280;64590;48.81286795;9.14184224;2023-03-25T05:19:16;97698.94;;;8.01;78.94
216;BME280;64590;48.81286795;9.14184224;2023-03-25T05:21:44;97696.59;;;8.10;76.61
216;BME280;64590;48.81286795;9.14184224;2023-03-25T05:24:13;97690.66;;;8.08;78.81
216;BME280;64590;48.81286795;9.14184224;2023-03-25T05:26:40;97687.50;;;8.09;76.77
216;BME280;64590;48.81286795;9.14184224;2023-03-25T05:29:09;97675.25;;;8.07;77.24
216;BME280;64590;48.81286795;9.14184224;2023-03-25T05:31:38;97693.06;;;8.34;74.99
216;BME280;64590;48.81286795;9.14184224;2023-03-25T05:34:05;97698.56;;;8.23;76.07
216;BME280;64590;48.81286795;9.14184224;2023-03-25T05:36:34;97696.25;;;8.36;74.05
216;BME280;64590;48.81286795;9.14184224;2023-03-25T05:39:01;97701.72;;;8.22;77.17
216;BME280;64590;48.81286795;9.14184224;2023-03-25T05:41:28;97689.13;;;8.28;75.16
216;BME280;64590;48.81286795;9.14184224;2023-03-25T05:43:58;97670.53;;;8.21;76.07
216;BME280;64590;48.81286795;9.14184224;2023-03-25T05:46:26;97691.53;;;8.37;74.80
216;BME280;64590;48.81286795;9.14184224;2023-03-25T05:48:54;97682.44;;;8.36;76.82
216;BME280;64590;48.81286795;9.14184224;2023-03-25T05:51:23;97687.97;;;8.47;76.04
216;BME280;64590;48.81286795;9.14184224;2023-03-25T05:53:51;97690.75;;;8.43;75.85
216;BME280;64590;48.81286795;9.14184224;2023-03-25T05:56:20;97685.19;;;8.50;76.47
216;BME280;64590;48.81286795;9.14184224;2023-03-25T05:58:49;97682.84;;;8.53;75.63
216;BME280;64590;48.81286795;9.14184224;2023-03-25T06:01:18;97700.59;;;8.59;75.37
216;BME280;64590;48.81286795;9.14184224;2023-03-25T06:03:45;97698.63;;;8.41;76.74
216;BME280;64590;48.81286795;9.14184224;2023-03-25T06:06:13;97699.84;;;8.62;76.17
216;BME280;64590;48.81286795;9.14184224;2023-03-25T06:08:43;97704.16;;;8.77;73.11
216;BME280;64590;48.81286795;9.14184224;2023-03-25T06:11:11;97710.09;;;8.65;73.38
216;BME280;64590;48.81286795;9.14184224;2023-03-25T06:13:39;97711.69;;;8.55;74.65
216;BME280;64590;48.81286795;9.14184224;2023-03-25T06:16:07;97723.53;;;8.66;73.37
216;BME280;64590;48.81286795;9.14184224;2023-03-25T06:18:34;97727.91;;;8.78;75.80
216;BME280;64590;48.81286795;9.14184224;2023-03-25T06:21:01;97727.88;;;8.99;73.46
216;BME280;64590;48.81286795;9.14184224;2023-03-25T06:23:27;97716.44;;;8.87;74.31
216;BME280;64590;48.81286795;9.14184224;2023-03-25T06:25:54;97732.22;;;8.93;75.55
216;BME280;64590;48.81286795;9.14184224;2023-03-25T06:28:24;97729.44;;;9.07;73.54
216;BME280;64590;48.81286795;9.14184224;2023-03-25T06:30:50;97727.44;;;9.22;71.91
216;BME280;64590;48.81286795;9.14184224;2023-03-25T06:33:17;97719.94;;;9.09;73.50
216;BME280;64590;48.81286795;9.14184224;2023-03-25T06:35:48;97720.75;;;9.09;74.42
216;BME280;64590;48.81286795;9.14184224;2023-03-25T06:38:18;97719.16;;;9.08;74.92
216;BME280;64590;48.81286795;9.14184224;2023-03-25T06:41:01;97724.31;;;9.13;74.18
216;BME280;64590;48.81286795;9.14184224;2023-03-25T06:43:29;97719.56;;;9.14;73.07
216;BME280;64590;48.81286795;9.14184224;2023-03-25T06:46:22;97727.81;;;9.21;74.71
216;BME280;64590;48.81286795;9.14184224;2023-03-25T06:49:08;97725.03;;;9.42;72.57
216;BME280;64590;48.81286795;9.14184224;2023-03-25T06:51:35;97731.75;;;9.41;72.00
216;BME280;64590;48.81286795;9.14184224;2023-03-25T06:54:02;97718.66;;;9.52;71.76
216;BME280;64590;48.81286795;9.14184224;2023-03-25T06:56:28;97736.53;;;9.30;71.55
216;BME280;64590;48.81286795;9.14184224;2023-03-25T06:58:56;97729.75;;;9.45;71.88
216;BME280;64590;48.81286795;9.14184224;2023-03-25T07:01:23;97729.75;;;9.45;73.17
216;BME280;64590;48.81286795;9.14184224;2023-03-25T07:03:49;97725.31;;;9.73;70.94
216;BME280;64590;48.81286795;9.14184224;2023-03-25T07:06:19;97723.34;;;9.70;70.37
216;BME280;64590;48.81286795;9.14184224;2023-03-25T07:08:47;97722.91;;;9.78;70.88
216;BME280;64590;48.81286795;9.14184224;2023-03-25T07:11:16;97725.97;;;9.98;68.47
216;BME280;64590;48.81286795;9.14184224;2023-03-25T07:13:43;97729.22;;;9.86;70.91
216;BME280;64590;48.81286795;9.14184224;2023-03-25T07:16:11;97723.56;;;10.07;70.95
216;BME280;64590;48.81286795;9.14184224;2023-03-25T07:18:38;97729.59;;;9.91;68.10
216;BME280;64590;48.81286795;9.14184224;2023-03-25T07:21:05;97728.47;;;9.75;69.28
216;BME280;64590;48.81286795;9.14184224;2023-03-25T07:23:32;97742.38;;;9.60;68.99
216;BME280;64590;48.81286795;9.14184224;2023-03-25T07:25:58;97747.56;;;9.51;69.76
216;BME280;64590;48.81286795;9.14184224;2023-03-25T07:28:25;97713.56;;;9.37;69.84
216;BME280;64590;48.81286795;9.14184224;2023-03-25T07:30:52;97742.81;;;9.45;69.76
216;BME280;64590;48.81286795;9.14184224;2023-03-25T07:33:20;97744.00;;;9.51;69.58
216;BME280;64590;48.81286795;9.14184224;2023-03-25T07:35:46;97740.03;;;9.45;70.42
216;BME280;64590;48.81286795;9.14184224;2023-03-25T07:38:13;97740.81;;;9.52;71.01
216;BME280;64590;48.81286795;9.14184224;2023-03-25T07:40:39;97739.59;;;9.64;70.28
216;BME280;64590;48.81286795;9.14184224;2023-03-25T07:43:06;97741.47;;;9.88;71.16
216;BME280;64590;48.81286795;9.14184224;2023-03-25T07:45:48;97737.38;;;10.25;69.83
216;BME280;64590;48.81286795;9.14184224;2023-03-25T07:48:15;97733.41;;;10.15;70.40
216;BME280;64590;48.81286795;9.14184224;2023-03-25T07:50:43;97723.19;;;10.05;70.55
216;BME280;64590;48.81286795;9.14184224;2023-03-25T07:53:13;97729.38;;;10.38;69.19
216;BME280;64590;48.81286795;9.14184224;2023-03-25T07:55:40;97727.78;;;10.37;70.84
216;BME280;64590;48.81286795;9.14184224;2023-03-25T07:58:06;97730.06;;;10.49;68.01
216;BME280;64590;48.81286795;9.14184224;2023-03-25T08:00:33;97701.63;;;10.38;67.55
216;BME280;64590;48.81286795;9.14184224;2023-03-25T08:02:59;97718.50;;;10.58;68.09
216;BME280;64590;48.81286795;9.14184224;2023-03-25T08:05:26;97708.50;;;10.71;67.90
216;BME280;64590;48.81286795;9.14184224;2023-03-25T08:07:54;97717.34;;;10.55;65.89
216;BME280;64590;48.81286795;9.14184224;2023-03-25T08:10:24;97715.88;;;10.40;66.25
216;BME280;64590;48.81286795;9.14184224;2023-03-25T08:12:51;97713.91;;;10.37;67.13
216;BME280;64590;48.81286795;9.14184224;2023-03-25T08:15:18;97700.47;;;10.32;67.80
216;BME280;64590;48.81286795;9.14184224;2023-03-25T08:17:49;97724.88;;;10.55;67.28
216;BME280;64590;48.81286795;9.14184224;2023-03-25T08:20:16;97711.28;;;10.71;65.58
216;BME280;64590;48.81286795;9.14184224;2023-03-25T08:22:44;97718.50;;;10.61;65.04
216;BME280;64590;48.81286795;9.14184224;2023-03-25T08:25:12;97726.38;;;10.66;65.60
216;BME280;64590;48.81286795;9.14184224;2023-03-25T08:27:39;97732.72;;;10.67;64.76
216;BME280;64590;48.81286795;9.14184224;2023-03-25T08:30:07;97716.19;;;10.53;66.16
216;BME280;64590;48.81286795;9.14184224;2023-03-25T08:32:35;97716.06;;;10.70;66.20
216;BME280;64590;48.81286795;9.14184224;2023-03-25T08:35:03;97712.03;;;10.75;64.78
216;BME280;64590;48.81286795;9.14184224;2023-03-25T08:37:30;97715.59;;;10.75;64.66
216;BME280;64590;48.81286795;9.14184224;2023-03-25T08:39:59;97726.47;;;10.56;65.15
216;BME280;64590;48.81286795;9.14184224;2023-03-25T08:42:27;97729.41;;;10.34;66.59
216;BME280;64590;48.81286795;9.14184224;2023-03-25T08:44:54;97736.16;;;10.30;67.46
216;BME280;64590;48.81286795;9.14184224;2023-03-25T08:47:20;97732.63;;;10.26;69.80
216;BME280;64590;48.81286795;9.14184224;2023-03-25T08:49:47;97729.00;;;10.32;71.31
216;BME280;64590;48.81286795;9.14184224;2023-03-25T08:52:13;97739.41;;;10.10;70.23
216;BME280;64590;48.81286795;9.14184224;2023-03-25T08:54:40;97739.09;;;9.94;69.59
216;BME280;64590;48.81286795;9.14184224;2023-03-25T08:57:07;97755.41;;;9.71;70.84
216;BME280;64590;48.81286795;9.14184224;2023-03-25T08:59:35;97754.66;;;9.52;73.03
216;BME280;64590;48.81286795;9.14184224;2023-03-25T09:02:01;97754.31;;;9.40;75.75
216;BME280;64590;48.81286795;9.14184224;2023-03-25T09:04:28;97758.59;;;9.62;74.86
216;BME280;64590;48.81286795;9.14184224;2023-03-25T09:06:55;97761.00;;;9.53;75.83
216;BME280;64590;48.81286795;9.14184224;2023-03-25T09:09:21;97749.16;;;9.45;77.35
216;BME280;64590;48.81286795;9.14184224;2023-03-25T09:11:48;97735.31;;;9.42;77.31
216;BME280;64590;48.81286795;9.14184224;2023-03-25T09:14:15;97719.47;;;9.49;77.64
216;BME280;64590;48.81286795;9.14184224;2023-03-25T09:16:43;97724.44;;;9.90;77.76
216;BME280;64590;48.81286795;9.14184224;2023-03-25T09:19:09;97733.84;;;10.07;77.14
216;BME280;64590;48.81286795;9.14184224;2023-03-25T09:21:36;97727.97;;;10.01;75.81
216;BME280;64590;48.81286795;9.14184224;2023-03-25T09:24:02;97727.53;;;10.06;78.74
216;BME280;64590;48.81286795;9.14184224;2023-03-25T09:26:29;97729.00;;;10.32;78.85
216;BME280;64590;48.81286795;9.14184224;2023-03-25T09:28:56;97722.06;;;10.62;77.38
216;BME280;64590;48.81286795;9.14184224;2023-03-25T09:31:22;97726.94;;;10.47;77.86
216;BME280;64590;48.81286795;9.14184224;2023-03-25T09:33:50;97725.25;;;10.60;75.02
216;BME280;64590;48.81286795;9.14184224;2023-03-25T09:36:17;97721.09;;;10.31;76.49
216;BME280;64590;48.81286795;9.14184224;2023-03-25T09:38:43;97707.50;;;10.47;76.73
216;BME280;64590;48.81286795;9.14184224;2023-03-25T09:41:25;97709.97;;;10.86;76.50
216;BME280;64590;48.81286795;9.14184224;2023-03-25T09:44:00;97696.84;;;10.90;76.82
216;BME280;64590;48.81286795;9.14184224;2023-03-25T09:46:27;97707.06;;;11.00;74.34
216;BME280;64590;48.81286795;9.14184224;2023-03-25T09:48:56;97715.59;;;11.20;76.60
216;BME280;64590;48.81286795;9.14184224;2023-03-25T09:51:25;97709.06;;;11.38;75.06
216;BME280;64590;48.81286795;9.14184224;2023-03-25T09:53:56;97713.13;;;11.29;74.96
216;BME280;64590;48.81286795;9.14184224;2023-03-25T09:56:26;97712.50;;;11.11;74.97
216;BME280;64590;48.81286795;9.14184224;2023-03-25T09:58:55;97704.59;;;11.10;75.47
216;BME280;64590;48.81286795;9.14184224;2023-03-25T10:01:31;97708.03;;;10.80;72.83
216;BME280;64590;48.81286795;9.14184224;2023-03-25T10:04:17;97703.28;;;10.76;74.55
216;BME280;64590;48.81286795;9.14184224;2023-03-25T10:06:51;97699.41;;;10.70;76.00
216;BME280;64590;48.81286795;9.14184224;2023-03-25T10:09:32;97715.38;;;11.00;75.68
216;BME280;64590;48.81286795;9.14184224;2023-03-25T10:12:04;97703.06;;;11.43;72.63
216;BME280;64590;48.81286795;9.14184224;2023-03-25T10:14:43;97708.25;;;11.75;73.32
216;BME280;64590;48.81286795;9.14184224;2023-03-25T10:17:24;97702.50;;;11.58;71.21
216;BME280;64590;48.81286795;9.14184224;2023-03-25T10:20:00;97704.16;;;11.86;72.64
216;BME280;64590;48.81286795;9.14184224;2023-03-25T10:22:34;97694.38;;;11.71;70.83
216;BME280;64590;48.81286795;9.14184224;2023-03-25T10:25:07;97692.09;;;11.97;69.65
216;BME280;64590;48.81286795;9.14184224;2023-03-25T10:27:40;97689.59;;;11.72;69.56
216;BME280;64590;48.81286795;9.14184224;2023-03-25T10:30:12;97687.41;;;11.90;66.94
216;BME280;64590;48.81286795;9.14184224;2023-03-25T10:32:41;97702.06;;;11.94;68.98
216;BME280;64590;48.81286795;9.14184224;2023-03-25T10:35:14;97693.88;;;11.83;66.03
216;BME280;64590;48.81286795;9.14184224;2023-03-25T10:37:42;97682.34;;;11.85;67.27
216;BME280;64590;48.81286795;9.14184224;2023-03-25T10:40:13;97685.59;;;11.76;65.14
216;BME280;64590;48.81286795;9.14184224;2023-03-25T10:42:46;97671.91;;;11.93;65.73
216;BME280;64590;48.81286795;9.14184224;2023-03-25T10:45:21;97701.22;;;11.97;64.55
216;BME280;64590;48.81286795;9.14184224;2023-03-25T10:47:50;97695.38;;;11.92;63.10
216;BME280;64590;48.81286795;9.14184224;2023-03-25T10:50:19;97681.97;;;11.79;62.57
216;BME280;64590;48.81286795;9.14184224;2023-03-25T10:52:47;97675.25;;;11.77;62.52
216;BME280;64590;48.81286795;9.14184224;2023-03-25T10:55:21;97675.91;;;11.57;63.91
216;BME280;64590;48.81286795;9.14184224;2023-03-25T10:57:50;97681.91;;;11.52;66.32
216;BME280;64590;48.81286795;9.14184224;2023-03-25T11:00:18;97689.53;;;11.45;65.82
216;BME280;64590;48.81286795;9.14184224;2023-03-25T11:02:46;97681.53;;;11.50;65.95
216;BME280;64590;48.81286795;9.14184224;2023-03-25T11:05:15;97683.53;;;11.50;66.36
216;BME280;64590;48.81286795;9.14184224;2023-03-25T11:07:47;97683.75;;;11.28;67.25
216;BME280;64590;48.81286795;9.14184224;2023-03-25T11:10:18;97667.22;;;11.52;67.07
216;BME280;64590;48.81286795;9.14184224;2023-03-25T11:12:45;97656.53;;;11.50;65.58
216;BME280;64590;48.81286795;9.14184224;2023-03-25T11:15:15;97670.13;;;11.75;65.10
216;BME280;64590;48.81286795;9.14184224;2023-03-25T11:17:43;97683.81;;;11.93;64.10
216;BME280;64590;48.81286795;9.14184224;2023-03-25T11:20:17;97687.47;;;11.52;63.27
216;BME280;64590;48.81286795;9.14184224;2023-03-25T11:22:47;97685.66;;;11.69;64.18
216;BME280;64590;48.81286795;9.14184224;2023-03-25T11:25:17;97679.69;;;11.71;62.56
216;BME280;64590;48.81286795;9.14184224;2023-03-25T11:27:46;97673.47;;;11.59;62.51
216;BME280;64590;48.81286795;9.14184224;2023-03-25T11:30:15;97670.53;;;11.74;63.72
216;BME280;64590;48.81286795;9.14184224;2023-03-25T11:32:42;97660.69;;;12.00;64.63
216;BME280;64590;48.81286795;9.14184224;2023-03-25T11:35:15;97660.25;;;12.01;60.39
216;BME280;64590;48.81286795;9.14184224;2023-03-25T11:37:44;97660.81;;;12.16;60.61
216;BME280;64590;48.81286795;9.14184224;2023-03-25T11:40:16;97652.09;;;12.18;59.73
216;BME280;64590;48.81286795;9.14184224;2023-03-25T11:42:44;97650.69;;;12.56;58.53
216;BME280;64590;48.81286795;9.14184224;2023-03-25T11:45:19;97645.22;;;12.49;59.03
216;BME280;64590;48.81286795;9.14184224;2023-03-25T11:47:46;97644.34;;;12.79;56.70
216;BME280;64590;48.81286795;9.14184224;2023-03-25T11:50:19;97663.69;;;12.63;55.78
216;BME280;64590;48.81286795;9.14184224;2023-03-25T11:52:47;97663.97;;;12.45;55.62
216;BME280;64590;48.81286795;9.14184224;2023-03-25T11:55:19;97657.78;;;12.61;54.94
216;BME280;64590;48.81286795;9.14184224;2023-03-25T11:57:48;97649.63;;;12.93;52.97
216;BME280;64590;48.81286795;9.14184224;2023-03-25T12:00:26;97653.09;;;13.64;52.14
216;BME280;64590;48.81286795;9.14184224;2023-03-25T12:02:59;97646.56;;;13.71;52.14
216;BME280;64590;48.81286795;9.14184224;2023-03-25T12:05:26;97673.25;;;13.09;51.73
216;BME280;64590;48.81286795;9.14184224;2023-03-25T12:08:03;97671.72;;;12.57;54.36